Airfield :
LOGIN :

Register | Disclaimer

   EN    FR    IT 

 










Legend :    VFR   Marginal VFR   IFR   Intensive IFR   Very Intensive IFR
Visi :
Ceiling :
>= 8 km
>= 3000ft
5 to 8 km
1000 to 3000 ft
1500m to 5 km
500 to 1000 ft
800 to 1500m
200 to 500 ft
< 800m
< 200 ft
Symbols :   Thunderstorms  Fog  Heavy snow  Heavy precipitations  Wind > 20 kt
SIGMETs :     Misc.  Thunderstorms  Icing  Turbulence  Mountain Waves  Volcanic Ashes






- Airport Elevation : 1470 ft
- IATA code : KLU


LOWK - Klagenfurt

CURRENT METAR :
  • 010120Z AUTO VRB01KT 8000 FEW002 BKN028 M01/M02 Q1022

EXPIRED METARs :
  • 010050Z AUTO VRB01KT 9000 FEW002 BKN030 M02/M02 Q1023
  • 010020Z AUTO VRB01KT 8000 FEW002 BKN030 M02/M02 Q1023
  • 302350Z AUTO VRB01KT 7000 FEW002 BKN030 M02/M02 Q1023
  • 302320Z AUTO VRB01KT 7000 FEW002 BKN030 M02/M02 Q1024
  • 302250Z AUTO VRB01KT 6000 FEW002 BKN030 M02/M02 Q1024

TAF TAF LOWK
Valid from the 01 at 00:00 until the 02 at 00:00 UTC


302315Z 0100/0124 VRB02KT 5000 SCT004 BKN025 TXM02/0111Z TNM04/0107Z
TEMPO 0100/0109 0800 FZFG BKN004
PROB30 0100/0107 0300 VV001
TEMPO 0115/0124 2500 BKN010



MET'MAP, your aeronautical weather chart ! - Copyright ORBIFLY December 2007 - Disclaimer

ORBIFLY MET'MAP TEAM :

Programming & Development : Alexandra Zaïnal
Concept & original design : Baudouin d'Aumeries
Assistance for programming : Marc-Olivier Méhu
Technical & hardware support : Manuel Goepfert

Contact : metmap@orbifly.com




SOURCES & CREDITS :

   NOAA